sensor_id;sensor_type;location;lat;lon;timestamp;P1;durP1;ratioP1;P2;durP2;ratioP2
16994;SDS011;8614;48.522;9.206;2023-08-17T00:01:15;13.47;;;12.47;;
16994;SDS011;8614;48.522;9.206;2023-08-17T00:03:42;13.67;;;12.53;;
16994;SDS011;8614;48.522;9.206;2023-08-17T00:06:10;13.53;;;12.53;;
16994;SDS011;8614;48.522;9.206;2023-08-17T00:08:37;13.53;;;12.53;;
16994;SDS011;8614;48.522;9.206;2023-08-17T00:11:03;13.47;;;12.27;;
16994;SDS011;8614;48.522;9.206;2023-08-17T00:13:30;13.97;;;12.87;;
16994;SDS011;8614;48.522;9.206;2023-08-17T00:15:57;13.40;;;12.50;;
16994;SDS011;8614;48.522;9.206;2023-08-17T00:18:24;13.63;;;12.73;;
16994;SDS011;8614;48.522;9.206;2023-08-17T00:20:51;14.30;;;13.17;;
16994;SDS011;8614;48.522;9.206;2023-08-17T00:23:19;13.73;;;12.73;;
16994;SDS011;8614;48.522;9.206;2023-08-17T00:25:47;13.77;;;12.87;;
16994;SDS011;8614;48.522;9.206;2023-08-17T00:28:13;14.00;;;12.70;;
16994;SDS011;8614;48.522;9.206;2023-08-17T00:30:40;13.67;;;12.67;;
16994;SDS011;8614;48.522;9.206;2023-08-17T00:33:07;14.37;;;13.23;;
16994;SDS011;8614;48.522;9.206;2023-08-17T00:35:35;13.70;;;12.60;;
16994;SDS011;8614;48.522;9.206;2023-08-17T00:38:02;13.33;;;12.27;;
16994;SDS011;8614;48.522;9.206;2023-08-17T00:40:30;13.40;;;12.30;;
16994;SDS011;8614;48.522;9.206;2023-08-17T00:42:57;14.70;;;13.40;;
16994;SDS011;8614;48.522;9.206;2023-08-17T00:45:25;14.73;;;13.47;;
16994;SDS011;8614;48.522;9.206;2023-08-17T00:47:53;14.40;;;12.90;;
16994;SDS011;8614;48.522;9.206;2023-08-17T00:50:23;13.80;;;12.77;;
16994;SDS011;8614;48.522;9.206;2023-08-17T00:52:51;13.53;;;12.63;;
16994;SDS011;8614;48.522;9.206;2023-08-17T00:55:19;13.97;;;12.97;;
16994;SDS011;8614;48.522;9.206;2023-08-17T00:57:48;13.63;;;12.67;;
16994;SDS011;8614;48.522;9.206;2023-08-17T01:00:15;14.10;;;13.10;;
16994;SDS011;8614;48.522;9.206;2023-08-17T01:02:42;13.87;;;12.87;;
16994;SDS011;8614;48.522;9.206;2023-08-17T01:05:10;14.07;;;13.00;;
16994;SDS011;8614;48.522;9.206;2023-08-17T01:07:37;15.07;;;13.87;;
16994;SDS011;8614;48.522;9.206;2023-08-17T01:10:06;14.30;;;13.30;;
16994;SDS011;8614;48.522;9.206;2023-08-17T01:12:36;13.90;;;12.80;;
16994;SDS011;8614;48.522;9.206;2023-08-17T01:15:11;13.73;;;12.70;;
16994;SDS011;8614;48.522;9.206;2023-08-17T01:17:42;13.67;;;12.77;;
16994;SDS011;8614;48.522;9.206;2023-08-17T01:20:12;14.30;;;13.20;;
16994;SDS011;8614;48.522;9.206;2023-08-17T01:22:42;13.83;;;12.93;;
16994;SDS011;8614;48.522;9.206;2023-08-17T01:25:13;13.90;;;12.90;;
16994;SDS011;8614;48.522;9.206;2023-08-17T01:27:43;13.60;;;12.70;;
16994;SDS011;8614;48.522;9.206;2023-08-17T01:30:11;14.77;;;13.47;;
16994;SDS011;8614;48.522;9.206;2023-08-17T01:32:42;13.47;;;12.57;;
16994;SDS011;8614;48.522;9.206;2023-08-17T01:35:20;13.90;;;13.00;;
16994;SDS011;8614;48.522;9.206;2023-08-17T01:37:52;14.20;;;13.20;;
16994;SDS011;8614;48.522;9.206;2023-08-17T01:40:23;14.97;;;13.77;;
16994;SDS011;8614;48.522;9.206;2023-08-17T01:42:51;14.93;;;13.93;;
16994;SDS011;8614;48.522;9.206;2023-08-17T01:45:20;15.17;;;14.17;;
16994;SDS011;8614;48.522;9.206;2023-08-17T01:47:48;16.07;;;14.67;;
16994;SDS011;8614;48.522;9.206;2023-08-17T01:50:15;14.47;;;13.47;;
16994;SDS011;8614;48.522;9.206;2023-08-17T01:52:42;14.37;;;13.37;;
16994;SDS011;8614;48.522;9.206;2023-08-17T01:55:09;14.57;;;13.60;;
16994;SDS011;8614;48.522;9.206;2023-08-17T01:57:37;14.60;;;13.60;;
16994;SDS011;8614;48.522;9.206;2023-08-17T02:00:04;14.53;;;13.43;;
16994;SDS011;8614;48.522;9.206;2023-08-17T02:02:39;15.00;;;14.00;;
16994;SDS011;8614;48.522;9.206;2023-08-17T02:05:06;14.57;;;13.57;;
16994;SDS011;8614;48.522;9.206;2023-08-17T02:07:34;14.40;;;13.40;;
16994;SDS011;8614;48.522;9.206;2023-08-17T02:10:01;14.23;;;13.23;;
16994;SDS011;8614;48.522;9.206;2023-08-17T02:12:28;14.87;;;13.80;;
16994;SDS011;8614;48.522;9.206;2023-08-17T02:14:56;14.83;;;13.83;;
16994;SDS011;8614;48.522;9.206;2023-08-17T02:17:23;14.57;;;13.47;;
16994;SDS011;8614;48.522;9.206;2023-08-17T02:19:50;15.20;;;14.10;;
16994;SDS011;8614;48.522;9.206;2023-08-17T02:22:16;15.47;;;14.27;;
16994;SDS011;8614;48.522;9.206;2023-08-17T02:24:43;14.67;;;13.60;;
16994;SDS011;8614;48.522;9.206;2023-08-17T02:27:11;15.23;;;14.23;;
16994;SDS011;8614;48.522;9.206;2023-08-17T02:29:38;15.57;;;14.47;;
16994;SDS011;8614;48.522;9.206;2023-08-17T02:32:07;14.60;;;13.60;;
16994;SDS011;8614;48.522;9.206;2023-08-17T02:34:33;13.90;;;12.90;;
16994;SDS011;8614;48.522;9.206;2023-08-17T02:37:00;13.70;;;12.80;;
16994;SDS011;8614;48.522;9.206;2023-08-17T02:39:27;14.90;;;13.80;;
16994;SDS011;8614;48.522;9.206;2023-08-17T02:41:54;14.37;;;13.43;;
16994;SDS011;8614;48.522;9.206;2023-08-17T02:44:21;13.83;;;12.83;;
16994;SDS011;8614;48.522;9.206;2023-08-17T02:46:48;14.17;;;13.17;;
16994;SDS011;8614;48.522;9.206;2023-08-17T02:49:16;13.93;;;13.03;;
16994;SDS011;8614;48.522;9.206;2023-08-17T02:51:43;14.10;;;13.13;;
16994;SDS011;8614;48.522;9.206;2023-08-17T02:54:10;14.37;;;13.37;;
16994;SDS011;8614;48.522;9.206;2023-08-17T02:56:37;14.23;;;13.07;;
16994;SDS011;8614;48.522;9.206;2023-08-17T02:59:04;14.83;;;13.73;;
16994;SDS011;8614;48.522;9.206;2023-08-17T03:01:30;14.00;;;13.07;;
16994;SDS011;8614;48.522;9.206;2023-08-17T03:03:57;14.43;;;13.47;;
16994;SDS011;8614;48.522;9.206;2023-08-17T03:06:26;14.20;;;13.20;;
16994;SDS011;8614;48.522;9.206;2023-08-17T03:08:52;14.13;;;13.13;;
16994;SDS011;8614;48.522;9.206;2023-08-17T03:11:19;14.77;;;13.67;;
16994;SDS011;8614;48.522;9.206;2023-08-17T03:13:46;16.07;;;14.87;;
16994;SDS011;8614;48.522;9.206;2023-08-17T03:16:14;15.70;;;14.60;;
16994;SDS011;8614;48.522;9.206;2023-08-17T03:18:41;15.63;;;14.53;;
16994;SDS011;8614;48.522;9.206;2023-08-17T03:21:08;14.67;;;13.67;;
16994;SDS011;8614;48.522;9.206;2023-08-17T03:23:36;14.60;;;13.70;;
16994;SDS011;8614;48.522;9.206;2023-08-17T03:26:03;14.53;;;13.60;;
16994;SDS011;8614;48.522;9.206;2023-08-17T03:28:31;15.40;;;14.30;;
16994;SDS011;8614;48.522;9.206;2023-08-17T03:30:58;15.10;;;13.90;;
16994;SDS011;8614;48.522;9.206;2023-08-17T03:33:24;14.90;;;13.87;;
16994;SDS011;8614;48.522;9.206;2023-08-17T03:35:51;13.90;;;13.00;;
16994;SDS011;8614;48.522;9.206;2023-08-17T03:38:18;14.40;;;13.50;;
16994;SDS011;8614;48.522;9.206;2023-08-17T03:40:47;14.47;;;13.57;;
16994;SDS011;8614;48.522;9.206;2023-08-17T03:43:14;14.33;;;13.43;;
16994;SDS011;8614;48.522;9.206;2023-08-17T03:45:41;14.30;;;13.40;;
16994;SDS011;8614;48.522;9.206;2023-08-17T03:48:08;14.60;;;13.70;;
16994;SDS011;8614;48.522;9.206;2023-08-17T03:50:35;14.20;;;13.30;;
16994;SDS011;8614;48.522;9.206;2023-08-17T03:53:02;13.73;;;12.93;;
16994;SDS011;8614;48.522;9.206;2023-08-17T03:55:29;13.50;;;12.70;;
16994;SDS011;8614;48.522;9.206;2023-08-17T03:57:57;13.90;;;13.10;;
16994;SDS011;8614;48.522;9.206;2023-08-17T04:00:24;14.93;;;14.03;;
16994;SDS011;8614;48.522;9.206;2023-08-17T04:02:55;7.97;;;7.40;;
16994;SDS011;8614;48.522;9.206;2023-08-17T04:05:22;8.23;;;7.63;;
16994;SDS011;8614;48.522;9.206;2023-08-17T04:07:49;6.80;;;6.20;;
16994;SDS011;8614;48.522;9.206;2023-08-17T04:10:16;5.90;;;5.40;;
16994;SDS011;8614;48.522;9.206;2023-08-17T04:12:43;8.87;;;8.27;;
16994;SDS011;8614;48.522;9.206;2023-08-17T04:15:11;13.47;;;12.47;;
16994;SDS011;8614;48.522;9.206;2023-08-17T04:17:38;13.07;;;11.97;;
16994;SDS011;8614;48.522;9.206;2023-08-17T04:20:05;11.97;;;10.83;;
16994;SDS011;8614;48.522;9.206;2023-08-17T04:22:34;11.70;;;10.70;;
16994;SDS011;8614;48.522;9.206;2023-08-17T04:25:00;11.23;;;10.33;;
16994;SDS011;8614;48.522;9.206;2023-08-17T04:27:28;8.20;;;7.40;;
16994;SDS011;8614;48.522;9.206;2023-08-17T04:29:56;8.60;;;7.70;;
16994;SDS011;8614;48.522;9.206;2023-08-17T04:32:26;7.97;;;7.17;;
16994;SDS011;8614;48.522;9.206;2023-08-17T04:34:53;10.33;;;9.43;;
16994;SDS011;8614;48.522;9.206;2023-08-17T04:37:20;8.17;;;6.93;;
16994;SDS011;8614;48.522;9.206;2023-08-17T04:39:47;11.37;;;10.47;;
16994;SDS011;8614;48.522;9.206;2023-08-17T04:42:18;8.63;;;7.43;;
16994;SDS011;8614;48.522;9.206;2023-08-17T04:44:47;8.33;;;7.47;;
16994;SDS011;8614;48.522;9.206;2023-08-17T04:47:14;8.00;;;7.20;;
16994;SDS011;8614;48.522;9.206;2023-08-17T04:49:43;8.00;;;6.90;;
16994;SDS011;8614;48.522;9.206;2023-08-17T04:52:10;8.10;;;7.30;;
16994;SDS011;8614;48.522;9.206;2023-08-17T04:54:37;8.23;;;7.33;;
16994;SDS011;8614;48.522;9.206;2023-08-17T04:57:04;8.23;;;7.43;;
16994;SDS011;8614;48.522;9.206;2023-08-17T04:59:31;8.10;;;7.23;;
16994;SDS011;8614;48.522;9.206;2023-08-17T05:01:57;9.00;;;8.10;;
16994;SDS011;8614;48.522;9.206;2023-08-17T05:04:24;10.63;;;9.00;;
16994;SDS011;8614;48.522;9.206;2023-08-17T05:06:54;8.80;;;7.93;;
16994;SDS011;8614;48.522;9.206;2023-08-17T05:09:22;10.53;;;9.37;;
16994;SDS011;8614;48.522;9.206;2023-08-17T05:11:49;10.20;;;8.53;;
16994;SDS011;8614;48.522;9.206;2023-08-17T05:14:16;9.77;;;8.77;;
16994;SDS011;8614;48.522;9.206;2023-08-17T05:16:43;11.07;;;9.50;;
16994;SDS011;8614;48.522;9.206;2023-08-17T05:19:09;11.50;;;9.63;;
16994;SDS011;8614;48.522;9.206;2023-08-17T05:21:36;11.40;;;9.83;;
16994;SDS011;8614;48.522;9.206;2023-08-17T05:24:05;12.67;;;10.00;;
16994;SDS011;8614;48.522;9.206;2023-08-17T05:26:32;11.57;;;10.33;;
16994;SDS011;8614;48.522;9.206;2023-08-17T05:28:59;13.00;;;11.17;;
16994;SDS011;8614;48.522;9.206;2023-08-17T05:31:26;12.40;;;11.10;;
16994;SDS011;8614;48.522;9.206;2023-08-17T05:33:53;21.03;;;19.33;;
16994;SDS011;8614;48.522;9.206;2023-08-17T05:36:23;12.97;;;10.60;;
16994;SDS011;8614;48.522;9.206;2023-08-17T05:38:50;14.43;;;12.47;;
16994;SDS011;8614;48.522;9.206;2023-08-17T05:41:18;13.50;;;11.27;;
16994;SDS011;8614;48.522;9.206;2023-08-17T05:43:45;14.43;;;11.73;;
16994;SDS011;8614;48.522;9.206;2023-08-17T05:46:13;12.90;;;11.60;;
16994;SDS011;8614;48.522;9.206;2023-08-17T05:48:40;12.70;;;11.30;;
16994;SDS011;8614;48.522;9.206;2023-08-17T05:51:07;12.73;;;11.43;;
16994;SDS011;8614;48.522;9.206;2023-08-17T05:53:34;13.77;;;11.47;;
16994;SDS011;8614;48.522;9.206;2023-08-17T05:56:00;13.93;;;11.30;;
16994;SDS011;8614;48.522;9.206;2023-08-17T05:58:29;13.23;;;11.93;;
16994;SDS011;8614;48.522;9.206;2023-08-17T06:01:03;11.40;;;10.20;;
16994;SDS011;8614;48.522;9.206;2023-08-17T06:03:30;16.17;;;14.77;;
16994;SDS011;8614;48.522;9.206;2023-08-17T06:05:58;19.37;;;17.77;;
16994;SDS011;8614;48.522;9.206;2023-08-17T06:08:25;20.07;;;18.37;;
16994;SDS011;8614;48.522;9.206;2023-08-17T06:10:52;20.63;;;18.80;;
16994;SDS011;8614;48.522;9.206;2023-08-17T06:13:19;19.43;;;17.73;;
16994;SDS011;8614;48.522;9.206;2023-08-17T06:15:47;19.57;;;17.83;;
16994;SDS011;8614;48.522;9.206;2023-08-17T06:18:14;18.93;;;17.20;;
16994;SDS011;8614;48.522;9.206;2023-08-17T06:20:41;18.03;;;16.60;;
16994;SDS011;8614;48.522;9.206;2023-08-17T06:23:08;19.50;;;17.80;;
16994;SDS011;8614;48.522;9.206;2023-08-17T06:25:35;19.57;;;17.90;;
16994;SDS011;8614;48.522;9.206;2023-08-17T06:28:02;17.50;;;16.00;;
16994;SDS011;8614;48.522;9.206;2023-08-17T06:30:29;17.27;;;15.77;;
16994;SDS011;8614;48.522;9.206;2023-08-17T06:32:57;16.07;;;14.57;;
16994;SDS011;8614;48.522;9.206;2023-08-17T06:35:24;15.97;;;14.67;;
16994;SDS011;8614;48.522;9.206;2023-08-17T06:37:51;16.47;;;15.10;;
16994;SDS011;8614;48.522;9.206;2023-08-17T06:40:21;15.40;;;14.20;;
16994;SDS011;8614;48.522;9.206;2023-08-17T06:42:48;15.10;;;13.93;;
16994;SDS011;8614;48.522;9.206;2023-08-17T06:45:15;14.87;;;13.67;;
16994;SDS011;8614;48.522;9.206;2023-08-17T06:47:43;14.70;;;13.50;;
16994;SDS011;8614;48.522;9.206;2023-08-17T06:50:12;15.17;;;13.97;;
16994;SDS011;8614;48.522;9.206;2023-08-17T06:52:39;15.80;;;14.70;;
16994;SDS011;8614;48.522;9.206;2023-08-17T06:55:06;7.83;;;7.00;;
16994;SDS011;8614;48.522;9.206;2023-08-17T06:57:33;9.30;;;7.30;;
16994;SDS011;8614;48.522;9.206;2023-08-17T07:00:00;7.87;;;7.07;;
16994;SDS011;8614;48.522;9.206;2023-08-17T07:02:27;8.50;;;7.70;;
16994;SDS011;8614;48.522;9.206;2023-08-17T07:04:53;9.40;;;7.90;;
16994;SDS011;8614;48.522;9.206;2023-08-17T07:07:22;9.03;;;7.97;;
16994;SDS011;8614;48.522;9.206;2023-08-17T07:09:49;10.50;;;9.50;;
16994;SDS011;8614;48.522;9.206;2023-08-17T07:12:16;12.20;;;11.10;;
16994;SDS011;8614;48.522;9.206;2023-08-17T07:14:44;10.37;;;9.37;;
16994;SDS011;8614;48.522;9.206;2023-08-17T07:17:11;12.60;;;11.50;;
16994;SDS011;8614;48.522;9.206;2023-08-17T07:19:38;10.67;;;9.77;;
16994;SDS011;8614;48.522;9.206;2023-08-17T07:22:04;11.50;;;10.50;;
16994;SDS011;8614;48.522;9.206;2023-08-17T07:24:33;14.57;;;13.37;;
16994;SDS011;8614;48.522;9.206;2023-08-17T07:27:00;15.67;;;14.47;;
16994;SDS011;8614;48.522;9.206;2023-08-17T07:29:27;15.27;;;14.17;;
16994;SDS011;8614;48.522;9.206;2023-08-17T07:31:53;17.67;;;16.17;;
16994;SDS011;8614;48.522;9.206;2023-08-17T07:34:23;17.30;;;15.97;;
16994;SDS011;8614;48.522;9.206;2023-08-17T07:36:50;16.23;;;15.03;;
16994;SDS011;8614;48.522;9.206;2023-08-17T07:39:17;15.00;;;13.80;;
16994;SDS011;8614;48.522;9.206;2023-08-17T07:41:45;15.00;;;13.80;;
16994;SDS011;8614;48.522;9.206;2023-08-17T07:44:12;9.23;;;8.20;;
16994;SDS011;8614;48.522;9.206;2023-08-17T07:46:39;9.73;;;8.40;;
16994;SDS011;8614;48.522;9.206;2023-08-17T07:49:06;12.83;;;11.73;;
16994;SDS011;8614;48.522;9.206;2023-08-17T07:51:33;9.57;;;8.50;;
16994;SDS011;8614;48.522;9.206;2023-08-17T07:54:00;10.50;;;8.23;;
16994;SDS011;8614;48.522;9.206;2023-08-17T07:56:27;9.43;;;8.30;;
16994;SDS011;8614;48.522;9.206;2023-08-17T07:58:55;8.17;;;7.33;;
16994;SDS011;8614;48.522;9.206;2023-08-17T08:01:23;10.23;;;8.47;;
16994;SDS011;8614;48.522;9.206;2023-08-17T08:03:50;8.33;;;7.40;;
16994;SDS011;8614;48.522;9.206;2023-08-17T08:06:16;14.77;;;13.43;;
16994;SDS011;8614;48.522;9.206;2023-08-17T08:08:45;9.50;;;8.60;;
16994;SDS011;8614;48.522;9.206;2023-08-17T08:11:12;10.53;;;9.63;;
16994;SDS011;8614;48.522;9.206;2023-08-17T08:13:39;14.27;;;13.03;;
16994;SDS011;8614;48.522;9.206;2023-08-17T08:16:07;11.53;;;10.43;;
16994;SDS011;8614;48.522;9.206;2023-08-17T08:18:34;12.53;;;11.27;;
16994;SDS011;8614;48.522;9.206;2023-08-17T08:21:01;12.90;;;11.80;;
16994;SDS011;8614;48.522;9.206;2023-08-17T08:23:27;13.40;;;12.10;;
16994;SDS011;8614;48.522;9.206;2023-08-17T08:25:54;15.30;;;14.10;;
16994;SDS011;8614;48.522;9.206;2023-08-17T08:28:23;16.37;;;14.90;;
16994;SDS011;8614;48.522;9.206;2023-08-17T08:30:50;15.20;;;14.03;;
16994;SDS011;8614;48.522;9.206;2023-08-17T08:33:19;15.70;;;14.50;;
16994;SDS011;8614;48.522;9.206;2023-08-17T08:35:45;13.93;;;12.83;;
16994;SDS011;8614;48.522;9.206;2023-08-17T08:38:13;14.97;;;13.47;;
16994;SDS011;8614;48.522;9.206;2023-08-17T08:40:41;12.90;;;11.80;;
16994;SDS011;8614;48.522;9.206;2023-08-17T08:43:10;11.27;;;10.27;;
16994;SDS011;8614;48.522;9.206;2023-08-17T08:45:36;10.83;;;9.93;;
16994;SDS011;8614;48.522;9.206;2023-08-17T08:48:06;12.87;;;11.77;;
16994;SDS011;8614;48.522;9.206;2023-08-17T08:50:35;11.93;;;10.83;;
16994;SDS011;8614;48.522;9.206;2023-08-17T08:53:07;14.00;;;12.73;;
16994;SDS011;8614;48.522;9.206;2023-08-17T08:55:41;15.20;;;13.93;;
16994;SDS011;8614;48.522;9.206;2023-08-17T08:58:14;12.17;;;11.07;;
16994;SDS011;8614;48.522;9.206;2023-08-17T09:00:42;12.63;;;11.70;;
16994;SDS011;8614;48.522;9.206;2023-08-17T09:03:11;9.60;;;8.77;;
16994;SDS011;8614;48.522;9.206;2023-08-17T09:05:41;9.90;;;9.10;;
16994;SDS011;8614;48.522;9.206;2023-08-17T09:08:10;13.23;;;12.13;;
16994;SDS011;8614;48.522;9.206;2023-08-17T09:10:39;8.53;;;7.70;;
16994;SDS011;8614;48.522;9.206;2023-08-17T09:13:07;11.13;;;9.97;;
16994;SDS011;8614;48.522;9.206;2023-08-17T09:15:34;14.80;;;13.60;;
16994;SDS011;8614;48.522;9.206;2023-08-17T09:18:01;10.87;;;9.87;;
16994;SDS011;8614;48.522;9.206;2023-08-17T09:20:35;10.67;;;9.77;;
16994;SDS011;8614;48.522;9.206;2023-08-17T09:23:04;11.63;;;10.73;;
16994;SDS011;8614;48.522;9.206;2023-08-17T09:25:35;8.70;;;7.73;;
16994;SDS011;8614;48.522;9.206;2023-08-17T09:28:06;9.67;;;8.43;;
16994;SDS011;8614;48.522;9.206;2023-08-17T09:30:48;11.53;;;10.73;;
16994;SDS011;8614;48.522;9.206;2023-08-17T09:33:19;11.33;;;10.43;;
16994;SDS011;8614;48.522;9.206;2023-08-17T09:35:47;8.13;;;6.97;;
16994;SDS011;8614;48.522;9.206;2023-08-17T09:38:16;15.20;;;14.10;;
16994;SDS011;8614;48.522;9.206;2023-08-17T09:40:43;10.30;;;9.50;;
16994;SDS011;8614;48.522;9.206;2023-08-17T09:43:10;7.80;;;6.90;;
16994;SDS011;8614;48.522;9.206;2023-08-17T09:45:38;9.43;;;8.63;;
16994;SDS011;8614;48.522;9.206;2023-08-17T09:48:05;9.00;;;8.20;;
16994;SDS011;8614;48.522;9.206;2023-08-17T09:50:33;8.17;;;7.37;;
16994;SDS011;8614;48.522;9.206;2023-08-17T09:52:59;8.27;;;7.57;;
16994;SDS011;8614;48.522;9.206;2023-08-17T09:55:29;13.47;;;12.47;;
16994;SDS011;8614;48.522;9.206;2023-08-17T09:57:57;9.97;;;9.27;;
16994;SDS011;8614;48.522;9.206;2023-08-17T10:00:24;12.10;;;11.20;;
16994;SDS011;8614;48.522;9.206;2023-08-17T10:02:53;11.67;;;10.87;;
16994;SDS011;8614;48.522;9.206;2023-08-17T10:05:21;12.17;;;11.27;;
16994;SDS011;8614;48.522;9.206;2023-08-17T10:07:51;11.87;;;10.83;;
16994;SDS011;8614;48.522;9.206;2023-08-17T10:10:21;10.00;;;9.20;;
16994;SDS011;8614;48.522;9.206;2023-08-17T10:12:56;9.73;;;8.87;;
16994;SDS011;8614;48.522;9.206;2023-08-17T10:15:33;13.20;;;11.90;;
16994;SDS011;8614;48.522;9.206;2023-08-17T10:18:07;12.80;;;11.70;;
16994;SDS011;8614;48.522;9.206;2023-08-17T10:20:40;6.20;;;5.60;;
16994;SDS011;8614;48.522;9.206;2023-08-17T10:23:12;11.50;;;9.47;;
16994;SDS011;8614;48.522;9.206;2023-08-17T10:25:42;6.87;;;6.30;;
16994;SDS011;8614;48.522;9.206;2023-08-17T10:28:12;6.73;;;6.03;;
16994;SDS011;8614;48.522;9.206;2023-08-17T10:30:39;8.50;;;7.57;;
16994;SDS011;8614;48.522;9.206;2023-08-17T10:33:06;7.60;;;6.80;;
16994;SDS011;8614;48.522;9.206;2023-08-17T10:35:35;7.30;;;6.33;;
16994;SDS011;8614;48.522;9.206;2023-08-17T10:38:04;8.47;;;6.47;;
16994;SDS011;8614;48.522;9.206;2023-08-17T10:40:34;7.00;;;6.27;;
16994;SDS011;8614;48.522;9.206;2023-08-17T10:43:02;7.70;;;5.93;;
16994;SDS011;8614;48.522;9.206;2023-08-17T10:45:31;8.20;;;7.50;;
16994;SDS011;8614;48.522;9.206;2023-08-17T10:48:00;6.80;;;5.63;;
16994;SDS011;8614;48.522;9.206;2023-08-17T10:51:01;7.47;;;6.30;;
16994;SDS011;8614;48.522;9.206;2023-08-17T10:53:39;9.00;;;8.30;;
16994;SDS011;8614;48.522;9.206;2023-08-17T10:56:13;11.03;;;10.33;;
16994;SDS011;8614;48.522;9.206;2023-08-17T10:58:42;6.50;;;5.80;;
16994;SDS011;8614;48.522;9.206;2023-08-17T11:01:11;6.10;;;5.50;;
16994;SDS011;8614;48.522;9.206;2023-08-17T11:03:39;8.90;;;8.20;;
16994;SDS011;8614;48.522;9.206;2023-08-17T11:06:15;10.53;;;9.83;;
16994;SDS011;8614;48.522;9.206;2023-08-17T11:08:53;6.20;;;5.50;;
16994;SDS011;8614;48.522;9.206;2023-08-17T11:11:21;7.70;;;6.27;;
16994;SDS011;8614;48.522;9.206;2023-08-17T11:13:49;7.03;;;5.60;;
16994;SDS011;8614;48.522;9.206;2023-08-17T11:16:17;8.80;;;8.10;;
16994;SDS011;8614;48.522;9.206;2023-08-17T11:18:45;9.00;;;8.30;;
16994;SDS011;8614;48.522;9.206;2023-08-17T11:21:13;9.10;;;8.40;;
16994;SDS011;8614;48.522;9.206;2023-08-17T11:23:41;5.70;;;4.93;;
16994;SDS011;8614;48.522;9.206;2023-08-17T11:26:08;8.17;;;7.47;;
16994;SDS011;8614;48.522;9.206;2023-08-17T11:28:35;7.40;;;5.73;;
16994;SDS011;8614;48.522;9.206;2023-08-17T11:31:04;10.67;;;9.77;;
16994;SDS011;8614;48.522;9.206;2023-08-17T11:33:34;11.73;;;10.93;;
16994;SDS011;8614;48.522;9.206;2023-08-17T11:36:03;12.50;;;11.53;;
16994;SDS011;8614;48.522;9.206;2023-08-17T11:38:32;11.53;;;10.83;;
16994;SDS011;8614;48.522;9.206;2023-08-17T11:41:00;12.20;;;11.30;;
16994;SDS011;8614;48.522;9.206;2023-08-17T11:43:28;12.03;;;11.23;;
16994;SDS011;8614;48.522;9.206;2023-08-17T11:45:55;11.37;;;10.57;;
16994;SDS011;8614;48.522;9.206;2023-08-17T11:48:23;11.17;;;10.43;;
16994;SDS011;8614;48.522;9.206;2023-08-17T11:50:52;11.47;;;10.77;;
16994;SDS011;8614;48.522;9.206;2023-08-17T11:53:20;11.93;;;11.03;;
16994;SDS011;8614;48.522;9.206;2023-08-17T11:55:47;11.53;;;10.70;;
16994;SDS011;8614;48.522;9.206;2023-08-17T11:58:14;6.93;;;6.33;;
16994;SDS011;8614;48.522;9.206;2023-08-17T12:00:41;6.10;;;5.50;;
16994;SDS011;8614;48.522;9.206;2023-08-17T12:03:12;6.00;;;5.50;;
16994;SDS011;8614;48.522;9.206;2023-08-17T12:05:41;6.50;;;5.90;;
16994;SDS011;8614;48.522;9.206;2023-08-17T12:08:10;5.80;;;5.30;;
16994;SDS011;8614;48.522;9.206;2023-08-17T12:10:39;6.77;;;6.07;;
16994;SDS011;8614;48.522;9.206;2023-08-17T12:13:10;9.90;;;9.20;;
16994;SDS011;8614;48.522;9.206;2023-08-17T12:15:37;5.90;;;5.40;;
16994;SDS011;8614;48.522;9.206;2023-08-17T12:18:05;6.30;;;5.80;;
16994;SDS011;8614;48.522;9.206;2023-08-17T12:20:32;9.57;;;8.87;;
16994;SDS011;8614;48.522;9.206;2023-08-17T12:23:02;6.03;;;5.53;;
16994;SDS011;8614;48.522;9.206;2023-08-17T12:25:30;6.03;;;5.53;;
16994;SDS011;8614;48.522;9.206;2023-08-17T12:27:57;5.57;;;5.10;;
16994;SDS011;8614;48.522;9.206;2023-08-17T12:30:26;6.70;;;6.10;;
16994;SDS011;8614;48.522;9.206;2023-08-17T12:32:54;10.63;;;9.90;;
16994;SDS011;8614;48.522;9.206;2023-08-17T12:35:21;12.23;;;11.43;;
16994;SDS011;8614;48.522;9.206;2023-08-17T12:37:49;9.67;;;8.97;;
16994;SDS011;8614;48.522;9.206;2023-08-17T12:40:16;11.80;;;10.93;;
16994;SDS011;8614;48.522;9.206;2023-08-17T12:42:45;11.03;;;10.33;;
16994;SDS011;8614;48.522;9.206;2023-08-17T12:45:12;11.63;;;10.83;;
16994;SDS011;8614;48.522;9.206;2023-08-17T12:47:39;8.87;;;8.23;;
16994;SDS011;8614;48.522;9.206;2023-08-17T12:50:06;6.50;;;5.90;;
16994;SDS011;8614;48.522;9.206;2023-08-17T12:52:34;11.90;;;11.10;;
16994;SDS011;8614;48.522;9.206;2023-08-17T12:55:01;6.40;;;5.80;;
16994;SDS011;8614;48.522;9.206;2023-08-17T12:57:28;6.20;;;5.67;;
16994;SDS011;8614;48.522;9.206;2023-08-17T12:59:56;10.00;;;9.30;;
16994;SDS011;8614;48.522;9.206;2023-08-17T13:02:23;8.30;;;7.57;;
16994;SDS011;8614;48.522;9.206;2023-08-17T13:04:49;11.90;;;11.00;;
16994;SDS011;8614;48.522;9.206;2023-08-17T13:07:16;8.77;;;7.97;;
16994;SDS011;8614;48.522;9.206;2023-08-17T13:09:43;12.17;;;11.37;;
16994;SDS011;8614;48.522;9.206;2023-08-17T13:12:11;5.97;;;5.43;;
16994;SDS011;8614;48.522;9.206;2023-08-17T13:14:38;10.03;;;9.33;;
16994;SDS011;8614;48.522;9.206;2023-08-17T13:17:06;8.97;;;8.27;;
16994;SDS011;8614;48.522;9.206;2023-08-17T13:19:33;7.27;;;6.67;;
16994;SDS011;8614;48.522;9.206;2023-08-17T13:22:00;11.90;;;11.10;;
16994;SDS011;8614;48.522;9.206;2023-08-17T13:24:29;12.70;;;11.90;;
16994;SDS011;8614;48.522;9.206;2023-08-17T13:26:56;9.00;;;8.30;;
16994;SDS011;8614;48.522;9.206;2023-08-17T13:29:23;6.57;;;5.97;;
16994;SDS011;8614;48.522;9.206;2023-08-17T13:31:50;7.70;;;7.10;;
16994;SDS011;8614;48.522;9.206;2023-08-17T13:34:18;11.33;;;10.40;;
16994;SDS011;8614;48.522;9.206;2023-08-17T13:36:45;7.07;;;6.47;;
16994;SDS011;8614;48.522;9.206;2023-08-17T13:39:11;7.53;;;6.93;;
16994;SDS011;8614;48.522;9.206;2023-08-17T13:41:38;8.27;;;7.57;;
16994;SDS011;8614;48.522;9.206;2023-08-17T13:44:06;8.87;;;8.07;;
16994;SDS011;8614;48.522;9.206;2023-08-17T13:46:32;7.63;;;6.93;;
16994;SDS011;8614;48.522;9.206;2023-08-17T13:48:59;8.77;;;7.90;;
16994;SDS011;8614;48.522;9.206;2023-08-17T13:51:27;11.53;;;10.63;;
16994;SDS011;8614;48.522;9.206;2023-08-17T13:53:54;9.73;;;8.73;;
16994;SDS011;8614;48.522;9.206;2023-08-17T13:56:21;7.73;;;7.03;;
16994;SDS011;8614;48.522;9.206;2023-08-17T13:58:48;7.20;;;6.60;;
16994;SDS011;8614;48.522;9.206;2023-08-17T14:01:15;9.17;;;8.47;;
16994;SDS011;8614;48.522;9.206;2023-08-17T14:03:42;7.33;;;6.63;;
16994;SDS011;8614;48.522;9.206;2023-08-17T14:06:09;7.50;;;6.90;;
16994;SDS011;8614;48.522;9.206;2023-08-17T14:08:37;9.10;;;8.30;;
16994;SDS011;8614;48.522;9.206;2023-08-17T14:11:03;8.37;;;6.73;;
16994;SDS011;8614;48.522;9.206;2023-08-17T14:13:31;6.37;;;5.87;;
16994;SDS011;8614;48.522;9.206;2023-08-17T14:15:58;8.43;;;7.73;;
16994;SDS011;8614;48.522;9.206;2023-08-17T14:18:25;9.07;;;8.27;;
16994;SDS011;8614;48.522;9.206;2023-08-17T14:20:52;7.57;;;6.87;;
16994;SDS011;8614;48.522;9.206;2023-08-17T14:23:19;8.57;;;7.77;;
16994;SDS011;8614;48.522;9.206;2023-08-17T14:25:47;7.87;;;7.17;;
16994;SDS011;8614;48.522;9.206;2023-08-17T14:28:14;9.63;;;8.87;;
16994;SDS011;8614;48.522;9.206;2023-08-17T14:30:41;10.33;;;9.53;;
16994;SDS011;8614;48.522;9.206;2023-08-17T14:33:08;13.63;;;12.63;;
16994;SDS011;8614;48.522;9.206;2023-08-17T14:35:34;13.37;;;12.37;;
16994;SDS011;8614;48.522;9.206;2023-08-17T14:38:01;13.23;;;12.33;;
16994;SDS011;8614;48.522;9.206;2023-08-17T14:40:28;11.43;;;10.63;;
16994;SDS011;8614;48.522;9.206;2023-08-17T14:42:56;12.20;;;11.20;;
16994;SDS011;8614;48.522;9.206;2023-08-17T14:45:23;9.60;;;8.80;;
16994;SDS011;8614;48.522;9.206;2023-08-17T14:47:50;12.90;;;11.90;;